ADDS METAR Data INFO
IDs: Format: Raw Decoded Include TAF

Data at: 1308 UTC 11 Dec 2017

KFRM 111256Z AUTO 27012KT 10SM OVC060 02/M03 A2973 RMK AO2 SLP081 T00171028 FZRANO
KFRM 111156Z AUTO 10003KT 10SM BKN060 M01/M03 A2974 RMK AO2 SLP086 7//// T10111033 10006 21017 56037 FZRANO
KFRM 111056Z AUTO 22006KT 10SM FEW120 00/M03 A2976 RMK AO2 SLP095 T00001033 FZRANO
KFRM 110956Z AUTO 19005KT 10SM BKN120 00/M03 A2980 RMK AO2 SLP107 T00001028 FZRANO
KFRM 110856Z AUTO 20007KT 10SM CLR M01/M03 A2985 RMK AO2 SLP124 T10061028 56032 FZRANO
KFRM 110756Z AUTO 22007KT 10SM SCT120 00/M02 A2989 RMK AO2 SLP136 T00001022 FZRANO
KFRM 110656Z AUTO 19010KT 10SM FEW085 BKN110 M01/M02 A2988 RMK AO2 SLP135 T10061022 FZRANO
KFRM 110556Z AUTO 18006KT 10SM CLR M01/M03 A2995 RMK AO2 SLP158 T10111028 10006 21011 400221039 58021 FZRANO
KFRM 110456Z AUTO 21003KT 10SM CLR M01/M02 A2998 RMK AO2 SLP169 T10061022 FZRANO
KFRM 110356Z AUTO 19004KT 10SM OVC120 M01/M03 A2998 RMK AO2 SLP170 T10111028 FZRANO
KFRM 110256Z AUTO 19004KT 10SM SCT120 M01/M03 A3001 RMK AO2 SLP180 T10061028 58017 FZRANO
KFRM 110156Z AUTO 20003KT 10SM OVC090 M01/M03 A3005 RMK AO2 SLP192 T10061028 FZRANO
KFRM 110056Z AUTO 00000KT 10SM OVC090 00/M03 A3006 RMK AO2 SLP196 T00001033 FZRANO
KFRM 102356Z AUTO 31004KT 10SM OVC100 01/M03 A3006 RMK AO2 SLP197 6//// T00061033 10022 20006 51010 FZRANO
KFRM 102256Z AUTO 31005KT 10SM BKN090 01/M04 A3006 RMK AO2 SLP195 T00061039 FZRANO
KFRM 102156Z AUTO 32009KT 10SM CLR 02/M04 A3004 RMK AO2 SLP189 T00171039 FZRANO
KFRM 102056Z AUTO 33013KT 10SM CLR 02/M04 A3003 RMK AO2 SLP187 T00171044 53003 FZRANO
KFRM 101956Z AUTO 32014KT 10SM CLR 02/M04 A3002 RMK AO2 SLP183 T00171044 FZRANO
KFRM 101856Z AUTO 32014KT 10SM CLR 02/M04 A3002 RMK AO2 SLP182 T00171044 FZRANO
KFRM 101756Z AUTO 33015KT 10SM CLR 01/M05 A3002 RMK AO2 SLP184 T00111050 10017 21017 51016 FZRANO
KFRM 101656Z AUTO 33016KT 10SM CLR 01/M05 A3001 RMK AO2 SLP182 T00111050 FZRANO
KFRM 101556Z AUTO 33016G26KT 10SM CLR 00/M05 A2999 RMK AO2 PK WND 32026/1556 SLP175 T00001050 FZRANO
KFRM 101456Z AUTO 32015G21KT 10SM CLR M01/M04 A2997 RMK AO2 SLP170 T10061044 51022 FZRANO
KFRM 101356Z AUTO 33015KT 10SM OVC110 M01/M04 A2995 RMK AO2 SLP162 T10111044 FZRANO
KFRM 101256Z AUTO 32016KT 10SM CLR M01/M04 A2993 RMK AO2 SLP156 T10061044 FZRANO
KFRM 101156Z AUTO 32016KT 10SM CLR M01/M04 A2991 RMK AO2 SLP148 T10061039 10000 21039 53017 FZRANO
KFRM 101056Z AUTO 32017KT 10SM CLR M01/M04 A2988 RMK AO2 SLP136 T10061039 FZRANO
KFRM 100956Z AUTO 32016KT 10SM CLR M01/M04 A2987 RMK AO2 SLP135 T10061039 FZRANO
KFRM 100856Z AUTO 30014G21KT 10SM CLR M02/M05 A2986 RMK AO2 SLP130 T10171050 55006 FZRANO
KFRM 100756Z AUTO 27011KT 10SM CLR M03/M06 A2985 RMK AO2 SLP127 T10331061 FZRANO
KFRM 100656Z AUTO 25012G18KT 10SM CLR M03/M07 A2985 RMK AO2 SLP130 T10331067 FZRANO
KFRM 100556Z AUTO 23011KT 10SM CLR M04/M06 A2987 RMK AO2 SLP137 T10391061 11039 21078 410171083 56042 FZRANO
KFRM 100456Z AUTO 21014KT 10SM CLR M04/M07 A2988 RMK AO2 PRESFR SLP141 T10441067 FZRANO
KFRM 100356Z AUTO 20008KT 10SM CLR M05/M07 A2996 RMK AO2 SLP168 T10501072 FZRANO
KFRM 100256Z AUTO 21007KT 10SM BKN110 M06/M08 A3000 RMK AO2 SLP182 T10561078 56024 FZRANO
KFRM 100156Z AUTO 21008KT 10SM BKN110 M06/M09 A3001 RMK AO2 SLP187 T10611089 FZRANO